Terminal Aerodrome Forecast
Issued by NWS Lake Charles, LA

Home | Current Version | Previous Version | Text Only | Print | Product List | Glossary On
Versions: 1 2 3 4 5 6 7 8 9 10 11 12 13 14 15 16 17 18 19 20 21
000
FTUS44 KLCH 180317 AAA
TAFBPT
TAF AMD
KBPT 180317Z 1803/1824 08006KT 5SM -TSRA SCT030CB OVC100
      TEMPO 1803/1805 1SM TSRA OVC008CB
     FM181200 12008KT P6SM VCSH OVC015
     FM181500 19008KT P6SM VCSH OVC025=

USA.gov is the U.S. government's official web portal to all federal, state and local government web resources and services.